createdAt,value
2018-02-03T00:02:15.463Z,3.60
2018-02-03T00:04:43.905Z,3.60
2018-02-03T00:07:14.621Z,3.60
2018-02-03T00:09:44.824Z,3.60
2018-02-03T00:12:13.681Z,3.60
2018-02-03T00:14:44.484Z,3.60
2018-02-03T00:17:22.897Z,3.50
2018-02-03T00:22:57.018Z,3.60
2018-02-03T00:25:53.116Z,3.60
2018-02-03T00:34:09.440Z,3.70
2018-02-03T00:36:56.649Z,3.70
2018-02-03T00:45:36.966Z,3.70
2018-02-03T00:51:04.557Z,3.80
2018-02-03T00:53:32.812Z,3.80
2018-02-03T00:56:00.318Z,3.70
2018-02-03T01:02:01.458Z,3.80
2018-02-03T01:05:04.997Z,3.80
2018-02-03T01:10:38.221Z,3.80
2018-02-03T01:13:29.548Z,3.80
2018-02-03T01:22:22.436Z,3.80
2018-02-03T01:27:57.813Z,3.80
2018-02-03T01:36:42.924Z,3.80
2018-02-03T01:42:21.680Z,3.80
2018-02-03T01:47:52.919Z,3.80
2018-02-03T01:50:24.510Z,3.70
2018-02-03T01:59:14.353Z,3.70
2018-02-03T02:04:45.828Z,3.70
2018-02-03T02:10:29.549Z,3.70
2018-02-03T02:16:47.045Z,3.70
2018-02-03T02:19:24.045Z,3.70
2018-02-03T02:38:39.584Z,3.50
2018-02-03T02:41:29.893Z,3.60
2018-02-03T02:43:58.198Z,3.60
2018-02-03T02:55:25.177Z,3.50
2018-02-03T03:00:55.738Z,3.50
2018-02-03T03:06:26.953Z,3.50
2018-02-03T03:08:57.064Z,3.50
2018-02-03T03:11:32.977Z,3.50
2018-02-03T03:14:10.321Z,3.50
2018-02-03T03:16:56.009Z,3.50
2018-02-03T03:19:31.577Z,3.40
2018-02-03T03:21:59.089Z,3.40
2018-02-03T03:24:26.956Z,3.40
2018-02-03T03:27:08.907Z,3.40
2018-02-03T03:29:37.156Z,3.40
2018-02-03T03:32:04.664Z,3.40
2018-02-03T03:34:40.067Z,3.40
2018-02-03T03:37:08.340Z,3.40
2018-02-03T03:40:05.272Z,3.40
2018-02-03T03:42:32.802Z,3.40
2018-02-03T03:45:01.064Z,3.50
2018-02-03T03:47:28.576Z,3.40
2018-02-03T03:49:56.473Z,3.50
2018-02-03T03:52:26.252Z,3.40
2018-02-03T03:55:25.136Z,3.30
2018-02-03T03:57:59.428Z,3.30
2018-02-03T04:00:27.445Z,3.40
2018-02-03T04:03:24.921Z,3.30
2018-02-03T04:05:58.945Z,3.30
2018-02-03T04:08:26.458Z,3.30
2018-02-03T04:10:56.936Z,3.20
2018-02-03T04:13:32.988Z,3.20
2018-02-03T04:16:01.254Z,3.10
2018-02-03T04:18:28.766Z,3.10
2018-02-03T04:24:26.241Z,3.10
2018-02-03T04:27:01.237Z,3.20
2018-02-03T04:29:32.345Z,3.10
2018-02-03T04:32:07.196Z,3.10
2018-02-03T04:34:34.704Z,3.10
2018-02-03T04:37:11.420Z,3.10
2018-02-03T04:39:56.847Z,3.00
2018-02-03T04:42:29.968Z,3.10
2018-02-03T04:45:09.936Z,3.10
2018-02-03T04:47:37.427Z,3.00
2018-02-03T04:50:06.740Z,3.00
2018-02-03T04:52:34.228Z,3.00
2018-02-03T04:55:01.737Z,3.00
2018-02-03T04:57:29.223Z,3.00
2018-02-03T04:59:58.743Z,3.00
2018-02-03T05:02:27.000Z,3.00
2018-02-03T05:08:10.041Z,3.00
2018-02-03T05:10:37.528Z,3.00
2018-02-03T05:16:09.552Z,3.00
2018-02-03T05:22:08.628Z,2.90
2018-02-03T05:24:40.616Z,2.90
2018-02-03T05:27:08.104Z,2.90
2018-02-03T05:29:35.614Z,2.90
2018-02-03T05:32:04.983Z,2.90
2018-02-03T05:35:08.288Z,2.90
2018-02-03T05:37:35.773Z,2.80
2018-02-03T05:43:04.600Z,2.80
2018-02-03T05:45:32.868Z,2.80
2018-02-03T05:48:00.360Z,2.80
2018-02-03T05:53:27.773Z,2.80
2018-02-03T05:56:33.058Z,2.80
2018-02-03T05:59:04.084Z,2.80
2018-02-03T06:04:38.407Z,2.80
2018-02-03T06:07:05.901Z,2.80
2018-02-03T06:09:42.891Z,2.70
2018-02-03T06:15:39.984Z,2.70
2018-02-03T06:18:32.144Z,2.70
2018-02-03T06:21:06.084Z,2.70
2018-02-03T06:23:33.568Z,2.70
2018-02-03T06:26:03.255Z,2.70
2018-02-03T06:31:27.446Z,2.70
2018-02-03T06:34:26.564Z,2.60
2018-02-03T06:36:57.433Z,2.60
2018-02-03T06:39:40.238Z,2.60
2018-02-03T06:42:26.935Z,2.60
2018-02-03T06:45:03.036Z,2.60
2018-02-03T06:47:37.117Z,2.60
2018-02-03T06:53:06.857Z,2.60
2018-02-03T06:55:34.368Z,2.50
2018-02-03T07:01:25.379Z,2.50
2018-02-03T07:06:55.940Z,2.50
2018-02-03T07:09:26.724Z,2.50
2018-02-03T07:12:01.893Z,2.50
2018-02-03T07:14:29.380Z,2.40
2018-02-03T07:16:57.200Z,2.50
2018-02-03T07:19:32.989Z,2.50
2018-02-03T07:22:00.544Z,2.50
2018-02-03T07:24:28.800Z,2.60
2018-02-03T07:26:57.356Z,2.60
2018-02-03T07:32:34.024Z,2.80
2018-02-03T07:35:27.013Z,2.80
2018-02-03T07:38:08.405Z,2.80
2018-02-03T07:40:35.916Z,2.80
2018-02-03T07:45:59.796Z,2.80
2018-02-03T07:48:28.048Z,3.00
2018-02-03T07:51:28.921Z,2.90
2018-02-03T07:54:05.433Z,3.00
2018-02-03T07:56:33.067Z,3.20
2018-02-03T07:59:00.560Z,3.20
2018-02-03T08:01:28.069Z,3.30
2018-02-03T08:03:59.563Z,3.30
2018-02-03T08:06:31.146Z,3.40
2018-02-03T08:09:01.215Z,3.40
2018-02-03T08:11:38.290Z,3.40
2018-02-03T08:14:05.975Z,3.40
2018-02-03T08:17:06.440Z,3.50
2018-02-03T08:19:33.932Z,3.50
2018-02-03T08:22:06.135Z,3.50
2018-02-03T08:24:33.672Z,3.70
2018-02-03T08:27:12.121Z,3.80
2018-02-03T08:29:39.620Z,4.00
2018-02-03T08:32:08.603Z,4.00
2018-02-03T08:34:40.572Z,4.10
2018-02-03T08:37:12.615Z,4.10
2018-02-03T08:42:27.569Z,4.20
2018-02-03T08:44:57.797Z,4.30
2018-02-03T08:47:28.796Z,4.30
2018-02-03T08:49:59.188Z,4.30
2018-02-03T08:52:35.100Z,4.30
2018-02-03T08:55:02.593Z,4.50
2018-02-03T08:57:40.672Z,4.80
2018-02-03T09:00:08.168Z,5.00
2018-02-03T09:05:35.824Z,5.00
2018-02-03T09:08:06.845Z,5.50
2018-02-03T09:10:41.220Z,5.50
2018-02-03T09:13:33.422Z,5.70
2018-02-03T09:16:12.180Z,5.80
2018-02-03T09:21:32.976Z,5.70
2018-02-03T09:24:35.021Z,5.60
2018-02-03T09:27:03.008Z,5.60
2018-02-03T09:29:56.825Z,5.60
2018-02-03T09:32:34.225Z,5.60
2018-02-03T09:35:01.716Z,5.60
2018-02-03T09:37:29.229Z,5.60
2018-02-03T09:39:59.228Z,5.30
2018-02-03T09:42:33.433Z,5.00
2018-02-03T09:45:23.961Z,4.80
2018-02-03T09:47:57.781Z,5.30
2018-02-03T09:50:39.450Z,5.20
2018-02-03T09:53:06.969Z,6.30
2018-02-03T09:55:34.492Z,7.60
2018-02-03T09:58:01.992Z,8.40
2018-02-03T10:00:29.476Z,8.80
2018-02-03T10:02:57.045Z,9.20
2018-02-03T10:05:24.532Z,8.90
2018-02-03T10:07:55.539Z,8.30
2018-02-03T10:10:26.408Z,7.90
2018-02-03T10:12:59.756Z,7.90
2018-02-03T10:15:30.340Z,8.20
2018-02-03T10:17:59.192Z,8.20
2018-02-03T10:20:29.448Z,8.20
2018-02-03T10:22:59.571Z,8.50
2018-02-03T10:25:30.081Z,8.50
2018-02-03T10:28:02.757Z,8.70
2018-02-03T10:30:30.433Z,8.60
2018-02-03T10:33:03.177Z,8.10
2018-02-03T10:35:31.228Z,8.00
2018-02-03T10:38:00.306Z,7.80
2018-02-03T10:40:28.757Z,7.80
2018-02-03T10:42:56.260Z,7.70
2018-02-03T10:45:24.550Z,8.00
2018-02-03T10:47:52.032Z,7.90
2018-02-03T10:50:21.990Z,7.60
2018-02-03T10:52:52.570Z,7.60
2018-02-03T10:55:23.240Z,7.50
2018-02-03T10:57:50.740Z,7.50
2018-02-03T11:00:21.504Z,7.20
2018-02-03T11:02:49.757Z,7.10
2018-02-03T11:05:17.652Z,7.10
2018-02-03T11:07:47.465Z,7.20
2018-02-03T11:10:16.372Z,7.20
2018-02-03T11:12:47.569Z,7.50
2018-02-03T11:15:16.314Z,7.50
2018-02-03T11:17:49.748Z,7.50
2018-02-03T11:20:47.213Z,7.50
2018-02-03T11:23:21.661Z,7.50
2018-02-03T11:25:58.473Z,7.70
2018-02-03T11:28:31.044Z,7.60
2018-02-03T11:37:47.635Z,7.40
2018-02-03T11:40:47.105Z,7.40
2018-02-03T11:46:43.268Z,7.30
2018-02-03T11:56:14.306Z,7.40
2018-02-03T11:59:11.513Z,7.40
2018-02-03T12:01:50.604Z,7.40
2018-02-03T12:04:18.116Z,7.40
2018-02-03T12:06:48.637Z,7.40
2018-02-03T12:09:16.908Z,7.40
2018-02-03T12:11:46.281Z,7.40
2018-02-03T12:14:16.893Z,7.30
2018-02-03T12:16:45.463Z,7.50
2018-02-03T12:19:18.556Z,7.50
2018-02-03T12:21:49.123Z,7.40
2018-02-03T12:24:18.592Z,7.40
2018-02-03T12:26:47.916Z,7.30
2018-02-03T12:29:19.761Z,7.30
2018-02-03T12:31:49.484Z,7.40
2018-02-03T12:34:20.663Z,7.30
2018-02-03T12:36:50.400Z,7.30
2018-02-03T12:39:18.092Z,7.60
2018-02-03T12:41:47.812Z,7.60
2018-02-03T12:44:15.395Z,7.40
2018-02-03T12:46:48.527Z,7.50
2018-02-03T12:49:16.383Z,7.50
2018-02-03T12:51:45.604Z,7.40
2018-02-03T12:54:16.243Z,7.40
2018-02-03T12:56:50.052Z,7.40
2018-02-03T12:59:17.536Z,7.40
2018-02-03T13:01:46.116Z,7.30
2018-02-03T13:04:16.172Z,7.10
2018-02-03T13:06:46.968Z,7.20
2018-02-03T13:09:17.308Z,7.20
2018-02-03T13:11:52.804Z,7.00
2018-02-03T13:14:20.406Z,6.80
2018-02-03T13:16:49.129Z,6.40
2018-02-03T13:19:17.385Z,6.30
2018-02-03T13:21:47.388Z,6.20
2018-02-03T13:24:17.143Z,6.20
2018-02-03T13:26:44.768Z,6.10
2018-02-03T13:29:16.884Z,6.10
2018-02-03T13:31:46.905Z,6.10
2018-02-03T13:34:18.200Z,6.10
2018-02-03T13:36:45.723Z,6.00
2018-02-03T13:39:13.671Z,5.90
2018-02-03T13:41:43.366Z,5.80
2018-02-03T13:44:16.224Z,5.80
2018-02-03T13:46:43.915Z,5.80
2018-02-03T13:49:13.032Z,5.70
2018-02-03T13:51:46.264Z,5.60
2018-02-03T13:54:24.568Z,5.60
2018-02-03T13:56:52.080Z,5.60
2018-02-03T13:59:22.954Z,5.60
2018-02-03T14:01:51.232Z,5.60
2018-02-03T14:04:27.021Z,5.60
2018-02-03T14:06:55.300Z,5.50
2018-02-03T14:09:23.556Z,5.50
2018-02-03T14:11:51.114Z,5.50
2018-02-03T14:14:18.586Z,5.50
2018-02-03T14:16:47.516Z,5.60
2018-02-03T14:19:17.116Z,5.70
2018-02-03T14:21:46.532Z,5.80
2018-02-03T14:24:20.640Z,5.90
2018-02-03T14:26:48.148Z,5.90
2018-02-03T14:29:15.762Z,6.00
2018-02-03T14:31:45.096Z,6.00
2018-02-03T14:34:15.592Z,6.00
2018-02-03T14:36:57.288Z,6.00
2018-02-03T14:39:24.786Z,6.00
2018-02-03T14:41:53.060Z,6.10
2018-02-03T14:44:20.552Z,6.10
2018-02-03T14:46:49.728Z,6.10
2018-02-03T14:49:17.216Z,6.20
2018-02-03T14:51:45.288Z,6.20
2018-02-03T14:57:17.798Z,6.10
2018-02-03T14:59:55.868Z,6.00
2018-02-03T15:02:32.518Z,5.90
2018-02-03T15:05:17.103Z,5.70
2018-02-03T15:07:45.150Z,5.60
2018-02-03T15:10:17.127Z,5.50
2018-02-03T15:12:45.401Z,5.30
2018-02-03T15:15:15.044Z,5.30
2018-02-03T15:17:44.377Z,5.30
2018-02-03T15:20:14.376Z,5.30
2018-02-03T15:22:52.476Z,5.30
2018-02-03T15:25:19.964Z,5.30
2018-02-03T15:27:55.986Z,5.30
2018-02-03T15:30:24.187Z,5.30
2018-02-03T15:32:52.465Z,5.30
2018-02-03T15:35:30.700Z,5.30
2018-02-03T15:37:59.028Z,5.30
2018-02-03T15:40:26.509Z,5.30
2018-02-03T15:42:54.112Z,5.30
2018-02-03T15:45:23.566Z,5.20
2018-02-03T15:47:51.336Z,5.20
2018-02-03T15:50:19.641Z,5.10
2018-02-03T15:52:47.897Z,5.00
2018-02-03T15:55:15.423Z,5.00
2018-02-03T15:58:16.257Z,5.00
2018-02-03T16:00:43.817Z,5.00
2018-02-03T16:03:15.997Z,4.90
2018-02-03T16:05:43.485Z,4.90
2018-02-03T16:08:17.680Z,4.80
2018-02-03T16:10:53.726Z,4.80
2018-02-03T16:13:21.237Z,4.80
2018-02-03T16:15:48.727Z,4.80
2018-02-03T16:18:16.242Z,4.70
2018-02-03T16:20:44.492Z,4.60
2018-02-03T16:23:20.443Z,4.60
2018-02-03T16:25:47.932Z,4.60
2018-02-03T16:28:15.476Z,4.60
2018-02-03T16:30:43.733Z,4.60
2018-02-03T16:33:11.785Z,4.60
2018-02-03T16:35:40.667Z,4.60
2018-02-03T16:38:11.489Z,4.60
2018-02-03T16:40:46.413Z,4.50
2018-02-03T16:43:19.625Z,4.50
2018-02-03T16:46:08.741Z,4.50
2018-02-03T16:48:46.276Z,4.40
2018-02-03T16:51:16.587Z,4.40
2018-02-03T16:53:44.105Z,4.30
2018-02-03T16:56:12.360Z,4.20
2018-02-03T16:58:41.944Z,4.10
2018-02-03T17:01:17.168Z,4.10
2018-02-03T17:04:04.046Z,4.00
2018-02-03T17:06:41.048Z,3.90
2018-02-03T17:09:11.999Z,3.90
2018-02-03T17:11:42.361Z,3.90
2018-02-03T17:14:11.803Z,4.20
2018-02-03T17:16:42.104Z,4.20
2018-02-03T17:19:11.952Z,4.30
2018-02-03T17:21:42.076Z,4.30
2018-02-03T17:24:12.122Z,4.30
2018-02-03T17:26:41.339Z,4.20
2018-02-03T17:29:11.764Z,4.10
2018-02-03T17:31:48.132Z,4.10
2018-02-03T17:34:15.636Z,4.00
2018-02-03T17:36:55.896Z,4.00
2018-02-03T17:39:24.169Z,4.00
2018-02-03T17:41:54.500Z,4.00
2018-02-03T17:44:25.812Z,4.00
2018-02-03T17:47:02.632Z,4.00
2018-02-03T17:49:34.861Z,3.90
2018-02-03T17:52:22.864Z,3.80
2018-02-03T17:54:50.364Z,3.80
2018-02-03T18:00:11.232Z,3.80
2018-02-03T18:02:39.495Z,3.80
2018-02-03T18:05:11.443Z,3.80
2018-02-03T18:07:41.019Z,3.80
2018-02-03T18:13:19.642Z,3.80
2018-02-03T18:15:47.152Z,3.80
2018-02-03T18:18:14.648Z,3.80
2018-02-03T18:20:46.368Z,3.80
2018-02-03T18:23:13.864Z,3.70
2018-02-03T18:25:43.776Z,3.80
2018-02-03T18:28:11.793Z,3.80
2018-02-03T18:30:40.813Z,3.80
2018-02-03T18:33:14.358Z,3.80
2018-02-03T18:35:42.308Z,3.80
2018-02-03T18:38:09.813Z,3.80
2018-02-03T18:40:37.378Z,3.90
2018-02-03T18:43:08.907Z,3.80
2018-02-03T18:45:43.744Z,3.80
2018-02-03T18:48:11.237Z,3.70
2018-02-03T18:50:41.824Z,3.60
2018-02-03T18:53:09.320Z,3.60
2018-02-03T18:55:37.588Z,3.50
2018-02-03T18:58:09.504Z,3.40
2018-02-03T19:00:37.804Z,3.40
2018-02-03T19:03:08.552Z,3.30
2018-02-03T19:05:39.840Z,3.40
2018-02-03T19:08:07.332Z,3.30
2018-02-03T19:10:34.944Z,3.40
2018-02-03T19:13:05.973Z,3.40
2018-02-03T19:15:42.188Z,3.40
2018-02-03T19:18:10.449Z,3.40
2018-02-03T19:20:37.956Z,3.30
2018-02-03T19:23:40.033Z,3.40
2018-02-03T19:26:10.409Z,3.50
2018-02-03T19:28:49.096Z,3.50
2018-02-03T19:34:05.008Z,3.60
2018-02-03T19:36:34.897Z,3.50
2018-02-03T19:39:07.080Z,3.50
2018-02-03T19:41:35.353Z,3.60
2018-02-03T19:44:04.585Z,3.50
2018-02-03T19:46:32.400Z,3.60
2018-02-03T19:49:10.348Z,3.60
2018-02-03T19:51:37.856Z,3.60
2018-02-03T19:54:05.343Z,3.60
2018-02-03T19:56:32.849Z,3.70
2018-02-03T19:59:01.508Z,3.70
2018-02-03T20:01:30.303Z,3.60
2018-02-03T20:03:59.908Z,3.60
2018-02-03T20:06:32.484Z,3.60
2018-02-03T20:09:02.680Z,3.60
2018-02-03T20:11:34.636Z,3.50
2018-02-03T20:14:13.300Z,3.60
2018-02-03T20:16:40.808Z,3.50
2018-02-03T20:22:01.840Z,3.50
2018-02-03T20:24:30.416Z,3.50
2018-02-03T20:27:00.672Z,3.40
2018-02-03T20:29:42.052Z,3.40
2018-02-03T20:32:10.344Z,3.40
2018-02-03T20:34:38.599Z,3.30
2018-02-03T20:37:06.108Z,3.30
2018-02-03T20:39:34.696Z,3.20
2018-02-03T20:42:02.972Z,3.20
2018-02-03T20:44:36.992Z,3.20
2018-02-03T20:47:44.098Z,3.20
2018-02-03T20:50:13.046Z,3.30
2018-02-03T20:52:40.832Z,3.30
2018-02-03T20:55:08.316Z,3.30
2018-02-03T20:57:36.594Z,3.30
2018-02-03T21:00:04.084Z,3.30
2018-02-03T21:02:32.355Z,3.30
2018-02-03T21:05:01.034Z,3.30
2018-02-03T21:07:35.604Z,3.40
2018-02-03T21:10:05.140Z,3.40
2018-02-03T21:12:33.416Z,3.50
2018-02-03T21:15:01.668Z,3.50
2018-02-03T21:17:30.980Z,3.50
2018-02-03T21:20:00.899Z,3.50
2018-02-03T21:22:30.676Z,3.50
2018-02-03T21:25:00.088Z,3.50
2018-02-03T21:27:30.521Z,3.50
2018-02-03T21:30:00.889Z,3.50
2018-02-03T21:32:30.196Z,3.50
2018-02-03T21:35:00.625Z,3.50
2018-02-03T21:37:31.263Z,3.40
2018-02-03T21:40:02.319Z,3.40
2018-02-03T21:42:30.013Z,3.40
2018-02-03T21:45:07.251Z,3.30
2018-02-03T21:47:35.521Z,3.30
2018-02-03T21:50:07.228Z,3.30
2018-02-03T21:52:35.213Z,3.30
2018-02-03T21:58:03.552Z,3.40
2018-02-03T22:00:41.611Z,3.40
2018-02-03T22:03:09.129Z,3.40
2018-02-03T22:05:41.564Z,3.50
2018-02-03T22:08:09.210Z,3.40
2018-02-03T22:10:37.160Z,3.50
2018-02-03T22:13:12.840Z,3.50
2018-02-03T22:15:40.331Z,3.50
2018-02-03T22:18:17.624Z,3.60
2018-02-03T22:20:45.132Z,3.50
2018-02-03T22:23:18.884Z,3.60
2018-02-03T22:25:46.441Z,3.60
2018-02-03T22:28:16.125Z,3.60
2018-02-03T22:30:44.278Z,3.60
2018-02-03T22:33:11.791Z,3.60
2018-02-03T22:35:39.708Z,3.70
2018-02-03T22:38:10.651Z,3.70
2018-02-03T22:40:41.435Z,3.70
2018-02-03T22:43:09.478Z,3.80
2018-02-03T22:45:41.229Z,3.70
2018-02-03T22:48:09.188Z,3.80
2018-02-03T22:50:41.410Z,3.80
2018-02-03T22:53:11.585Z,3.70
2018-02-03T22:55:39.455Z,3.70
2018-02-03T22:58:11.700Z,3.70
2018-02-03T23:01:06.151Z,3.70
2018-02-03T23:03:45.851Z,3.70
2018-02-03T23:06:14.097Z,3.80
2018-02-03T23:08:46.560Z,3.90
2018-02-03T23:11:14.136Z,3.90
2018-02-03T23:13:42.408Z,3.90
2018-02-03T23:16:10.125Z,3.90
2018-02-03T23:18:40.168Z,4.00
2018-02-03T23:21:10.579Z,4.00
2018-02-03T23:23:39.691Z,4.00
2018-02-03T23:26:10.495Z,3.80
2018-02-03T23:28:40.116Z,3.80
2018-02-03T23:31:10.196Z,3.50
2018-02-03T23:33:46.527Z,3.20
2018-02-03T23:36:14.015Z,3.20
2018-02-03T23:38:41.519Z,3.20
2018-02-03T23:41:09.980Z,3.00
2018-02-03T23:43:40.060Z,2.90
2018-02-03T23:46:10.984Z,2.80
2018-02-03T23:48:46.828Z,2.70
2018-02-03T23:51:31.950Z,2.60
2018-02-03T23:54:04.867Z,2.60
2018-02-03T23:56:40.437Z,2.50
2018-02-03T23:59:08.824Z,2.40
